Time;durP1;ratioP1;P1;durP2;ratioP2;P2;SDS_P1;SDS_P2;PMS_P1;PMS_P2;Temp;Humidity;BMP_temperature;BMP_pressure;BME280_temperature;BME280_humidity;BME280_pressure;Samples;Min_cycle;Max_cycle;Signal;HPM_P1;HPM_P2
2023/04/28 00:01:51;;;;;;;6.77;4.93;;;;;;;10.72;96.32;97966.94;4950938;29;20228;-76
2023/04/28 00:04:18;;;;;;;6.87;5.43;;;;;;;10.74;95.62;97972.94;4950642;29;20222;-78
2023/04/28 00:06:45;;;;;;;7.97;5.20;;;;;;;10.80;94.38;97975.13;4950753;29;20209;-78
2023/04/28 00:09:11;;;;;;;8.90;5.37;;;;;;;10.85;92.75;97973.00;4949917;29;20249;-78
2023/04/28 00:11:38;;;;;;;7.60;5.23;;;;;;;10.86;92.82;97969.41;4950563;29;20710;-77
2023/04/28 00:14:06;;;;;;;8.03;4.93;;;;;;;10.87;92.42;97960.50;4950831;29;20219;-78
2023/04/28 00:16:32;;;;;;;5.57;4.77;;;;;;;10.91;91.55;97952.25;4950684;28;20381;-78
2023/04/28 00:18:59;;;;;;;6.43;4.87;;;;;;;10.94;91.59;97956.50;4950660;29;20233;-78
2023/04/28 00:21:26;;;;;;;6.43;4.50;;;;;;;10.93;91.91;97962.69;4949776;29;20236;-78
2023/04/28 00:23:53;;;;;;;5.00;4.37;;;;;;;10.95;91.81;97963.47;4950571;29;20325;-78
2023/04/28 00:26:19;;;;;;;5.77;4.53;;;;;;;10.96;91.45;97957.22;4950773;29;20208;-78
2023/04/28 00:28:46;;;;;;;8.50;5.03;;;;;;;11.06;90.02;97945.00;4950730;29;20571;-79
2023/04/28 00:31:15;;;;;;;8.13;5.10;;;;;;;11.07;88.83;97939.59;4949796;28;20739;-78
2023/04/28 00:33:42;;;;;;;5.50;4.80;;;;;;;11.08;89.30;97938.63;4950571;28;20215;-78
2023/04/28 00:36:10;;;;;;;6.03;4.77;;;;;;;11.08;90.00;97937.78;4950493;28;20602;-78
2023/04/28 00:38:37;;;;;;;5.63;4.83;;;;;;;11.09;89.79;97936.81;4950347;28;20228;-78
2023/04/28 00:41:03;;;;;;;7.80;4.90;;;;;;;11.07;89.64;97936.13;4949443;29;20214;-79
2023/04/28 00:43:30;;;;;;;5.70;4.70;;;;;;;11.07;89.61;97941.41;4950958;28;20684;-78
2023/04/28 00:45:56;;;;;;;6.57;5.37;;;;;;;11.09;89.84;97944.75;4954109;29;20215;-78
2023/04/28 00:48:24;;;;;;;5.83;4.70;;;;;;;11.12;89.19;97940.09;4953781;29;20216;-78
2023/04/28 00:50:51;;;;;;;7.10;4.93;;;;;;;11.14;88.71;97924.94;4952821;28;20219;-79
2023/04/28 00:53:18;;;;;;;7.70;5.53;;;;;;;11.15;89.49;97923.16;4953589;29;20227;-79
2023/04/28 00:55:46;;;;;;;6.40;5.03;;;;;;;11.14;90.40;97932.03;4953576;29;20238;-78
2023/04/28 00:58:13;;;;;;;6.17;5.13;;;;;;;11.12;91.84;97936.63;4954209;28;20220;-78
2023/04/28 01:00:39;;;;;;;6.70;5.43;;;;;;;11.10;92.50;97930.59;4965929;29;20216;-77
2023/04/28 01:03:06;;;;;;;6.13;5.00;;;;;;;11.05;93.89;97936.22;4975664;29;20211;-78
2023/04/28 01:05:35;;;;;;;5.07;4.50;;;;;;;11.03;94.11;97934.63;4977477;28;20208;-79
2023/04/28 01:08:01;;;;;;;6.77;5.23;;;;;;;11.06;93.24;97929.13;4972608;28;20215;-78
2023/04/28 01:10:28;;;;;;;6.93;5.20;;;;;;;11.11;91.53;97921.69;4952851;29;20298;-78
2023/04/28 01:12:54;;;;;;;6.40;4.80;;;;;;;11.14;90.26;97921.47;4953451;29;20235;-79
2023/04/28 01:15:21;;;;;;;5.63;4.47;;;;;;;11.17;89.71;97913.28;4953372;29;20215;-78
2023/04/28 01:17:48;;;;;;;4.87;4.30;;;;;;;11.18;88.77;97907.06;4953621;29;20231;-79
2023/04/28 01:20:15;;;;;;;6.60;4.80;;;;;;;11.20;88.58;97905.97;4952560;28;20614;-78
2023/04/28 01:22:42;;;;;;;5.70;4.50;;;;;;;11.23;88.00;97904.88;4953302;29;20231;-78
2023/04/28 01:25:10;;;;;;;5.03;4.53;;;;;;;11.24;87.52;97896.00;4953475;29;20214;-78
2023/04/28 01:27:37;;;;;;;5.97;4.80;;;;;;;11.30;87.50;97898.19;4953505;28;20207;-78
2023/04/28 01:30:04;;;;;;;5.67;4.80;;;;;;;11.32;88.08;97888.34;4952113;29;20295;-78
2023/04/28 01:32:30;;;;;;;5.67;4.63;;;;;;;11.26;90.46;97891.44;4952927;28;20242;-78
2023/04/28 01:34:57;;;;;;;6.17;4.60;;;;;;;11.27;92.02;97893.13;4952914;29;20716;-78
2023/04/28 01:37:24;;;;;;;7.97;5.40;;;;;;;11.25;92.17;97887.94;4953007;29;20258;-77
2023/04/28 01:39:50;;;;;;;7.10;4.70;;;;;;;11.23;91.56;97889.88;4952593;29;20223;-78
2023/04/28 01:42:18;;;;;;;5.60;4.30;;;;;;;11.27;91.69;97887.84;4952842;29;20242;-77
2023/04/28 01:44:45;;;;;;;6.10;4.80;;;;;;;11.25;91.14;97887.13;4953007;28;20216;-78
2023/04/28 01:47:11;;;;;;;4.93;4.27;;;;;;;11.22;91.74;97887.34;4952828;29;20219;-77
2023/04/28 01:49:38;;;;;;;5.23;4.50;;;;;;;11.19;92.15;97892.88;4952450;29;20219;-78
2023/04/28 01:52:05;;;;;;;5.37;4.43;;;;;;;11.16;91.97;97895.75;4953213;29;20235;-77
2023/04/28 01:54:32;;;;;;;6.80;4.70;;;;;;;11.14;92.63;97885.25;4952488;29;20212;-79
2023/04/28 01:56:58;;;;;;;7.07;4.87;;;;;;;11.15;92.44;97886.13;4952139;29;20231;-78
2023/04/28 01:59:26;;;;;;;6.00;5.20;;;;;;;11.19;94.23;97882.31;4952281;29;20215;-78
2023/04/28 02:01:52;;;;;;;6.20;5.20;;;;;;;11.29;95.37;97885.91;4953330;28;20601;-78
2023/04/28 02:04:19;;;;;;;7.20;4.83;;;;;;;11.27;96.57;97886.06;4952994;29;20218;-78
2023/04/28 02:06:45;;;;;;;6.77;4.37;;;;;;;11.20;97.37;97891.91;4953005;29;20218;-77
2023/04/28 02:09:12;;;;;;;6.13;4.57;;;;;;;11.19;97.90;97883.13;4951895;29;20212;-77
2023/04/28 02:11:38;;;;;;;5.63;4.77;;;;;;;11.23;98.59;97878.44;4952544;29;20231;-78
2023/04/28 02:14:05;;;;;;;4.77;4.20;;;;;;;11.30;97.25;97869.94;4952567;29;20212;-78
2023/04/28 02:16:33;;;;;;;5.90;4.30;;;;;;;11.29;97.16;97867.41;4952473;28;20236;-78
2023/04/28 02:18:59;;;;;;;6.00;4.37;;;;;;;11.28;97.37;97876.28;4952551;28;20211;-79
2023/04/28 02:21:26;;;;;;;5.93;4.33;;;;;;;11.26;97.78;97878.22;4951979;29;20232;-78
2023/04/28 02:23:53;;;;;;;6.07;4.70;;;;;;;11.23;98.26;97876.66;4952389;29;20692;-78
2023/04/28 02:26:19;;;;;;;5.77;4.30;;;;;;;11.21;98.93;97875.06;4952630;28;20207;-78
2023/04/28 02:28:47;;;;;;;4.20;3.80;;;;;;;11.18;100.00;97868.22;4952348;29;20306;-78
2023/04/28 02:31:14;;;;;;;5.20;4.03;;;;;;;11.18;100.00;97864.75;4951768;28;20293;-78
2023/04/28 02:33:42;;;;;;;5.60;4.53;;;;;;;11.17;100.00;97868.31;4952698;29;20211;-78
2023/04/28 02:36:09;;;;;;;4.27;3.83;;;;;;;11.13;100.00;97861.59;4952321;28;20214;-78
2023/04/28 02:38:36;;;;;;;4.70;4.20;;;;;;;11.09;100.00;97854.84;4952347;28;20242;-77
2023/04/28 02:41:05;;;;;;;6.10;4.50;;;;;;;11.08;100.00;97866.38;4951252;28;20213;-77
2023/04/28 02:43:32;;;;;;;5.40;4.40;;;;;;;11.07;100.00;97868.19;4982119;23;20237;-88
2023/04/28 02:45:59;;;;;;;4.50;3.87;;;;;;;11.06;100.00;97868.31;4971213;28;20207;-88
2023/04/28 02:48:26;;;;;;;4.73;4.23;;;;;;;11.07;100.00;97867.34;4970978;28;20215;-88
2023/04/28 02:50:54;;;;;;;4.87;4.20;;;;;;;11.05;100.00;97858.66;4970122;28;20217;-88
2023/04/28 02:53:21;;;;;;;4.30;3.90;;;;;;;11.04;100.00;97864.91;4970713;28;20696;-88
2023/04/28 02:55:47;;;;;;;4.63;3.80;;;;;;;11.06;100.00;97866.50;4970911;28;20213;-88
2023/04/28 02:58:14;;;;;;;4.87;4.37;;;;;;;11.09;100.00;97870.72;4970529;28;20721;-89
2023/04/28 03:00:41;;;;;;;5.47;4.33;;;;;;;11.06;99.59;97870.97;4970251;28;20222;-88
2023/04/28 03:03:07;;;;;;;7.07;4.67;;;;;;;10.94;97.63;97887.75;4970811;28;20239;-88
2023/04/28 03:05:34;;;;;;;8.03;5.03;;;;;;;10.90;98.09;97894.19;4970795;28;20207;-88
2023/04/28 03:08:01;;;;;;;5.07;4.07;;;;;;;10.95;97.93;97895.53;4970488;28;20234;-88
2023/04/28 03:10:28;;;;;;;6.17;4.40;;;;;;;10.80;98.46;97888.75;4969803;28;20211;-88
2023/04/28 03:12:54;;;;;;;6.80;4.57;;;;;;;10.71;100.00;97897.34;4970719;28;20602;-88
2023/04/28 03:15:21;;;;;;;5.93;4.80;;;;;;;10.49;100.00;97886.66;4970718;28;20210;-93
2023/04/28 03:17:47;;;;;;;6.17;4.47;;;;;;;10.33;100.00;97878.16;4970493;28;20231;-89
2023/04/28 03:20:14;;;;;;;5.23;4.20;;;;;;;10.22;100.00;97877.25;4969806;28;20214;-89
2023/04/28 03:22:41;;;;;;;5.57;4.60;;;;;;;10.20;100.00;97865.94;4970410;28;20242;-89
2023/04/28 03:25:10;;;;;;;4.83;4.17;;;;;;;10.19;100.00;97859.81;4970328;28;20217;-89
2023/04/28 03:27:36;;;;;;;5.03;4.53;;;;;;;10.20;100.00;97858.00;4970502;28;20294;-89
2023/04/28 03:30:03;;;;;;;5.30;4.80;;;;;;;10.20;100.00;97850.09;4969704;28;20214;-89
2023/04/28 03:32:29;;;;;;;6.43;4.97;;;;;;;10.22;100.00;97851.66;4970163;28;20232;-89
2023/04/28 03:34:56;;;;;;;7.10;4.83;;;;;;;10.25;100.00;97851.47;4970291;28;20236;-89
2023/04/28 03:37:22;;;;;;;6.17;4.80;;;;;;;10.24;100.00;97848.94;4970324;28;20605;-89
2023/04/28 03:39:49;;;;;;;6.63;5.07;;;;;;;10.22;100.00;97846.38;4969542;28;20225;-88
2023/04/28 03:42:16;;;;;;;5.50;4.60;;;;;;;10.23;100.00;97847.25;4970294;28;20256;-88
2023/04/28 03:44:43;;;;;;;6.67;5.37;;;;;;;10.23;100.00;97852.53;4970199;28;20217;-89
2023/04/28 03:47:10;;;;;;;6.33;4.57;;;;;;;10.24;100.00;97851.56;4970007;28;20207;-88
2023/04/28 03:49:36;;;;;;;7.27;5.17;;;;;;;10.21;100.00;97843.88;4968935;28;20221;-89
2023/04/28 03:52:03;;;;;;;6.53;5.27;;;;;;;10.18;100.00;97838.81;4970353;28;20229;-89
2023/04/28 03:54:29;;;;;;;6.60;5.60;;;;;;;10.23;100.00;97831.41;4970000;28;20601;-89
2023/04/28 03:56:56;;;;;;;7.23;5.43;;;;;;;10.15;100.00;97833.75;4970211;28;20271;-88
2023/04/28 03:59:24;;;;;;;5.70;5.10;;;;;;;10.14;100.00;97826.75;4969062;28;20222;-78
2023/04/28 04:01:50;;;;;;;7.00;4.80;;;;;;;10.09;100.00;97832.38;4969760;28;20617;-88
2023/04/28 04:04:17;;;;;;;6.47;4.87;;;;;;;10.04;100.00;97828.41;4969905;28;20218;-88
2023/04/28 04:06:43;;;;;;;5.40;4.50;;;;;;;10.00;100.00;97830.38;4969882;28;20223;-88
2023/04/28 04:09:10;;;;;;;5.30;4.80;;;;;;;10.00;100.00;97824.25;4969114;28;20216;-88
2023/04/28 04:11:37;;;;;;;5.33;4.60;;;;;;;9.99;100.00;97827.84;4969917;28;20236;-88
2023/04/28 04:14:05;;;;;;;5.67;4.60;;;;;;;10.02;100.00;97830.25;4969674;28;20215;-88
2023/04/28 04:16:32;;;;;;;5.80;4.97;;;;;;;10.02;100.00;97822.34;4969922;28;20249;-88
2023/04/28 04:18:59;;;;;;;5.90;5.07;;;;;;;10.05;100.00;97827.44;4972965;28;20243;-88
2023/04/28 04:21:26;;;;;;;6.17;4.77;;;;;;;10.08;100.00;97827.19;4975359;28;20225;-88
2023/04/28 04:23:53;;;;;;;5.27;4.50;;;;;;;10.09;100.00;97834.19;4976318;28;20240;-88
2023/04/28 04:26:19;;;;;;;5.97;4.67;;;;;;;10.11;100.00;97821.72;4976235;28;20221;-88
2023/04/28 04:28:46;;;;;;;7.13;4.73;;;;;;;10.12;100.00;97823.41;4976099;28;20262;-88
2023/04/28 04:31:12;;;;;;;5.23;4.73;;;;;;;10.14;100.00;97822.34;4975192;28;20217;-87
2023/04/28 04:33:40;;;;;;;5.87;4.77;;;;;;;10.17;100.00;97826.56;4975824;28;20217;-88
2023/04/28 04:36:07;;;;;;;5.47;4.50;;;;;;;10.22;100.00;97835.81;4975796;28;20213;-89
2023/04/28 04:38:34;;;;;;;5.63;4.90;;;;;;;10.24;100.00;97827.78;4975906;28;20234;-89
2023/04/28 04:41:00;;;;;;;5.57;4.90;;;;;;;10.23;100.00;97834.03;4975790;28;20212;-88
2023/04/28 04:43:27;;;;;;;7.17;4.90;;;;;;;10.22;100.00;97835.81;4975694;28;20242;-90
2023/04/28 04:45:54;;;;;;;6.50;5.00;;;;;;;10.26;100.00;97828.53;4976056;28;20214;-90
2023/04/28 04:48:20;;;;;;;5.27;4.77;;;;;;;10.31;100.00;97818.47;4975057;28;20237;-89
2023/04/28 04:50:48;;;;;;;6.10;4.90;;;;;;;10.38;100.00;97824.97;4975524;28;20216;-90
2023/04/28 04:53:14;;;;;;;6.20;5.60;;;;;;;10.43;100.00;97830.78;4975992;28;20241;-89
2023/04/28 04:55:41;;;;;;;6.37;5.20;;;;;;;10.45;100.00;97831.53;4976205;28;20206;-90
2023/04/28 04:58:08;;;;;;;6.47;5.60;;;;;;;10.44;100.00;97813.97;4976362;28;20235;-90
2023/04/28 05:00:36;;;;;;;6.00;5.30;;;;;;;10.49;100.00;97828.53;4976515;28;20214;-90
2023/04/28 05:03:02;;;;;;;6.50;5.80;;;;;;;10.50;100.00;97818.81;4977543;28;20548;-90
2023/04/28 05:05:29;;;;;;;6.37;5.77;;;;;;;10.51;100.00;97804.66;4977543;28;20207;-90
2023/04/28 05:07:57;;;;;;;6.27;5.20;;;;;;;10.52;100.00;97801.06;4977125;28;20206;-90
2023/04/28 05:10:24;;;;;;;6.47;5.80;;;;;;;10.53;100.00;97802.75;4976255;28;20212;-90
2023/04/28 05:12:51;;;;;;;8.63;6.10;;;;;;;10.56;100.00;97813.91;4976552;28;20233;-90
2023/04/28 05:15:18;;;;;;;7.63;5.77;;;;;;;10.56;100.00;97813.06;4977229;28;20537;-90
2023/04/28 05:17:44;;;;;;;7.57;6.33;;;;;;;10.58;100.00;97821.75;4976458;28;20233;-90
2023/04/28 05:20:11;;;;;;;6.83;6.00;;;;;;;10.54;100.00;97809.69;4975565;28;20299;-90
2023/04/28 05:22:38;;;;;;;6.30;5.60;;;;;;;10.49;100.00;97815.34;4976594;28;20239;-90
2023/04/28 05:25:07;;;;;;;7.63;5.73;;;;;;;10.49;100.00;97822.41;4976361;28;20211;-90
2023/04/28 05:27:36;;;;;;;7.50;5.60;;;;;;;10.47;100.00;97813.75;4975985;28;20220;-90
2023/04/28 05:30:03;;;;;;;6.97;6.03;;;;;;;10.43;100.00;97812.28;4973661;28;20208;-90
2023/04/28 05:32:29;;;;;;;8.27;6.07;;;;;;;10.42;100.00;97816.75;4972150;28;20232;-90
2023/04/28 05:34:56;;;;;;;10.73;6.27;;;;;;;10.46;100.00;97814.72;4972611;28;20291;-91
2023/04/28 05:37:22;;;;;;;9.03;6.60;;;;;;;10.56;100.00;97821.00;4972089;28;20236;-90
2023/04/28 05:39:49;;;;;;;9.63;6.33;;;;;;;10.56;100.00;97819.22;4972136;28;20211;-90
2023/04/28 05:42:17;;;;;;;8.43;7.07;;;;;;;10.62;100.00;97823.19;4972442;28;20241;-90
2023/04/28 05:44:43;;;;;;;9.03;6.00;;;;;;;10.65;100.00;97822.97;4976619;28;20221;-89
2023/04/28 05:47:10;;;;;;;7.80;6.37;;;;;;;10.70;100.00;97826.13;4984133;28;20303;-90
2023/04/28 05:49:37;;;;;;;8.57;6.43;;;;;;;10.75;100.00;97819.53;4978075;28;20211;-90
2023/04/28 05:52:04;;;;;;;10.50;7.00;;;;;;;10.80;100.00;97827.09;4973607;28;20235;-89
2023/04/28 05:54:30;;;;;;;8.20;6.90;;;;;;;10.82;100.00;97820.75;4972976;28;20215;-89
2023/04/28 05:56:57;;;;;;;7.30;6.40;;;;;;;10.87;100.00;97823.03;4972399;28;20328;-89
2023/04/28 05:59:27;;;;;;;8.60;6.87;;;;;;;10.91;100.00;97813.91;4970618;28;20286;-89
2023/04/28 06:01:53;;;;;;;11.40;6.93;;;;;;;10.97;100.00;97816.97;4971667;28;20237;-90
2023/04/28 06:04:20;;;;;;;8.43;7.53;;;;;;;11.00;100.00;97813.25;4971891;28;20211;-90
2023/04/28 06:06:46;;;;;;;9.77;7.10;;;;;;;11.01;100.00;97809.63;4971760;28;20218;-90
2023/04/28 06:09:13;;;;;;;11.37;8.27;;;;;;;11.03;100.00;97807.72;4971003;28;20588;-89
2023/04/28 06:11:39;;;;;;;10.23;7.67;;;;;;;11.03;100.00;97802.41;4971731;28;20238;-89
2023/04/28 06:14:06;;;;;;;11.27;7.30;;;;;;;11.06;100.00;97804.84;4971576;28;20207;-89
2023/04/28 06:16:34;;;;;;;9.90;7.17;;;;;;;11.08;100.00;97805.56;4971847;28;20238;-89
2023/04/28 06:19:01;;;;;;;10.57;7.27;;;;;;;11.11;100.00;97802.66;4971637;28;20231;-89
2023/04/28 06:21:28;;;;;;;11.37;7.77;;;;;;;11.16;100.00;97813.75;4970859;28;20222;-89
2023/04/28 06:23:54;;;;;;;9.73;7.37;;;;;;;11.17;100.00;97807.47;4971607;28;20646;-82
2023/04/28 06:26:21;;;;;;;9.30;6.87;;;;;;;11.22;100.00;97797.41;4971270;28;20209;-84
2023/04/28 06:28:47;;;;;;;10.10;7.67;;;;;;;11.25;100.00;97803.28;4971058;28;20663;-86
2023/04/28 06:31:14;;;;;;;9.10;6.73;;;;;;;11.30;100.00;97808.22;4970462;28;20210;-81
2023/04/28 06:33:42;;;;;;;9.90;6.93;;;;;;;11.32;100.00;97803.69;4970509;28;20207;-83
2023/04/28 06:36:12;;;;;;;9.63;6.90;;;;;;;11.36;100.00;97800.66;4969182;28;20702;-81
2023/04/28 06:38:42;;;;;;;7.13;6.40;;;;;;;11.35;100.00;97798.13;4968355;28;20266;-81
2023/04/28 06:41:09;;;;;;;8.83;7.50;;;;;;;11.38;100.00;97792.63;4966826;28;20920;-81
2023/04/28 06:43:35;;;;;;;8.70;6.70;;;;;;;11.39;100.00;97789.88;4968834;28;20868;-81
2023/04/28 06:46:02;;;;;;;9.50;7.10;;;;;;;11.44;100.00;97789.50;4971053;28;20219;-81
2023/04/28 06:48:29;;;;;;;9.17;6.33;;;;;;;11.50;100.00;97791.66;4970066;28;20882;-83
2023/04/28 06:50:56;;;;;;;9.13;7.00;;;;;;;11.52;100.00;97795.03;4967756;28;20234;-82
2023/04/28 06:53:23;;;;;;;11.13;7.67;;;;;;;11.52;100.00;97790.59;4968086;28;20235;-81
2023/04/28 06:55:50;;;;;;;9.43;7.33;;;;;;;11.56;100.00;97785.91;4967880;28;20211;-82
2023/04/28 06:58:16;;;;;;;8.90;7.60;;;;;;;11.55;100.00;97786.88;4970313;28;20308;-82
2023/04/28 07:00:43;;;;;;;10.60;7.50;;;;;;;11.52;100.00;97784.44;4969939;28;20219;-80
2023/04/28 07:03:10;;;;;;;11.90;8.17;;;;;;;11.50;100.00;97781.91;4970824;28;20230;-81
2023/04/28 07:05:36;;;;;;;10.50;7.50;;;;;;;11.53;100.00;97776.38;4970783;28;20307;-82
2023/04/28 07:08:06;;;;;;;8.13;7.17;;;;;;;11.53;100.00;97775.53;4970554;28;20207;-80
2023/04/28 07:10:32;;;;;;;11.10;7.70;;;;;;;11.51;100.00;97773.03;4969964;28;20708;-80
2023/04/28 07:12:59;;;;;;;9.07;7.70;;;;;;;11.55;100.00;97768.34;4970168;28;20252;-80
2023/04/28 07:15:26;;;;;;;11.02;9.48;;;;;;;11.60;100.00;97769.69;4966478;28;20451;-80
2023/04/28 07:17:52;;;;;;;9.63;8.03;;;;;;;11.59;100.00;97764.50;4963969;28;20211;-80
2023/04/28 07:20:19;;;;;;;9.27;7.83;;;;;;;11.66;100.00;97765.69;4980593;28;20206;-80
2023/04/28 07:22:45;;;;;;;13.33;8.37;;;;;;;11.62;100.00;97772.22;4985954;28;20332;-80
2023/04/28 07:25:13;;;;;;;8.53;6.83;;;;;;;11.71;100.00;97763.53;4984986;28;20210;-80
2023/04/28 07:27:40;;;;;;;9.27;7.57;;;;;;;11.65;100.00;97766.66;4988653;28;20214;-80
2023/04/28 07:30:07;;;;;;;10.30;7.27;;;;;;;11.64;100.00;97757.03;4987200;28;20241;-84
2023/04/28 07:32:34;;;;;;;8.77;6.77;;;;;;;11.65;100.00;97758.72;4949832;28;20227;-84
2023/04/28 07:35:00;;;;;;;8.50;7.47;;;;;;;11.67;100.00;97760.28;4954325;28;20771;-85
2023/04/28 07:37:27;;;;;;;11.47;7.97;;;;;;;11.64;100.00;97763.19;4968943;28;20217;-85
2023/04/28 07:39:54;;;;;;;10.37;7.13;;;;;;;11.66;100.00;97770.97;4958041;28;20247;-85
2023/04/28 07:42:22;;;;;;;8.50;7.10;;;;;;;11.61;100.00;97757.28;4949804;28;20240;-85
2023/04/28 07:44:49;;;;;;;7.60;6.90;;;;;;;11.66;100.00;97760.41;4949444;29;20217;-85
2023/04/28 07:47:15;;;;;;;9.33;7.97;;;;;;;11.64;100.00;97762.34;4948666;29;20219;-85
2023/04/28 07:49:42;;;;;;;8.20;7.00;;;;;;;11.66;100.00;97761.25;4948823;28;20203;-85
2023/04/28 07:52:09;;;;;;;9.93;8.37;;;;;;;11.70;100.00;97764.50;4949413;28;20605;-85
2023/04/28 07:54:36;;;;;;;10.30;7.17;;;;;;;11.74;100.00;97764.13;4949449;28;20246;-85
2023/04/28 07:57:04;;;;;;;8.77;7.00;;;;;;;11.79;100.00;97766.44;4950508;29;20234;-85
2023/04/28 07:59:33;;;;;;;10.60;7.17;;;;;;;11.84;100.00;97772.19;4949585;29;20270;-85
2023/04/28 08:01:59;;;;;;;9.47;7.73;;;;;;;11.88;100.00;97781.56;4950138;29;20238;-84
2023/04/28 08:04:25;;;;;;;9.37;7.63;;;;;;;11.82;100.00;97792.66;4948680;28;20220;-85
2023/04/28 08:06:53;;;;;;;9.17;7.63;;;;;;;11.77;100.00;97789.50;4948291;28;20212;-87
2023/04/28 08:09:26;;;;;;;9.17;7.33;;;;;;;11.76;100.00;97786.03;4948938;28;20227;-86
2023/04/28 08:11:52;;;;;;;9.63;7.50;;;;;;;11.80;100.00;97784.00;4949478;28;20314;-87
2023/04/28 08:14:20;;;;;;;10.00;7.53;;;;;;;11.88;100.00;97800.09;4948945;28;20219;-86
2023/04/28 08:16:48;;;;;;;10.47;8.10;;;;;;;11.80;100.00;97813.13;4949600;29;20227;-86
2023/04/28 08:19:14;;;;;;;12.70;9.50;;;;;;;11.75;100.00;97829.34;4949079;28;20258;-87
2023/04/28 08:21:41;;;;;;;13.17;10.20;;;;;;;11.78;100.00;97817.66;4959768;28;20313;-87
2023/04/28 08:24:09;;;;;;;10.33;8.77;;;;;;;11.83;100.00;97803.13;4987930;28;20304;-86
2023/04/28 08:26:36;;;;;;;11.13;8.70;;;;;;;11.92;100.00;97812.16;4968009;28;20321;-86
2023/04/28 08:29:02;;;;;;;9.70;7.87;;;;;;;11.96;100.00;97801.19;4946138;28;20247;-87
2023/04/28 08:31:29;;;;;;;10.93;8.33;;;;;;;11.99;100.00;97800.09;4959165;28;20240;-87
2023/04/28 08:33:57;;;;;;;10.43;8.20;;;;;;;12.00;100.00;97815.88;4965812;28;20223;-88
2023/04/28 08:36:25;;;;;;;9.93;7.83;;;;;;;12.03;100.00;97806.81;4947204;28;20208;-89
2023/04/28 08:38:51;;;;;;;10.80;8.60;;;;;;;12.08;100.00;97789.59;4949318;28;20235;-87
2023/04/28 08:41:18;;;;;;;11.15;8.65;;;;;;;12.17;100.00;97798.63;4948014;28;20501;-82
2023/04/28 08:43:45;;;;;;;8.43;7.53;;;;;;;12.21;100.00;97800.03;4963191;23;20246;-81
2023/04/28 08:46:14;;;;;;;10.77;8.73;;;;;;;12.19;100.00;97802.84;4950201;29;20211;-85
2023/04/28 08:48:43;;;;;;;9.73;7.80;;;;;;;12.26;100.00;97808.47;4951506;28;20654;-83
2023/04/28 08:51:16;;;;;;;9.13;8.00;;;;;;;12.34;100.00;97808.69;4949587;28;20218;-83
2023/04/28 08:53:50;;;;;;;8.77;7.40;;;;;;;12.40;100.00;97816.97;4950056;29;20237;-83
2023/04/28 08:56:18;;;;;;;8.80;7.87;;;;;;;12.49;100.00;97826.00;4950061;28;20648;-83
2023/04/28 08:58:44;;;;;;;8.53;7.57;;;;;;;12.55;100.00;97829.00;4949791;28;20261;-83
2023/04/28 09:01:11;;;;;;;10.37;7.70;;;;;;;12.69;100.00;97819.88;4949785;28;20306;-83
2023/04/28 09:03:37;;;;;;;9.27;8.13;;;;;;;12.74;100.00;97826.50;4949793;28;20321;-83
2023/04/28 09:06:04;;;;;;;9.17;8.20;;;;;;;12.84;100.00;97829.25;4952779;28;20214;-82
2023/04/28 09:08:32;;;;;;;9.67;7.50;;;;;;;12.94;100.00;97817.72;4953310;28;20216;-83
2023/04/28 09:11:08;;;;;;;9.47;6.90;;;;;;;13.05;100.00;97819.50;4952619;28;20212;-85
2023/04/28 09:13:36;;;;;;;10.60;8.67;;;;;;;13.10;100.00;97825.28;4953349;28;20289;-83
2023/04/28 09:16:04;;;;;;;7.33;6.27;;;;;;;13.12;100.00;97820.69;4953249;28;20219;-84
2023/04/28 09:18:31;;;;;;;7.23;6.50;;;;;;;13.14;100.00;97824.88;4953030;28;20223;-84
2023/04/28 09:21:05;;;;;;;6.57;5.73;;;;;;;13.19;100.00;97824.50;4953148;28;20643;-84
2023/04/28 09:23:33;;;;;;;7.37;6.13;;;;;;;13.23;100.00;97831.22;4953149;28;20233;-84
2023/04/28 09:26:02;;;;;;;7.00;5.87;;;;;;;13.33;100.00;97824.19;4952962;28;20221;-84
2023/04/28 09:28:29;;;;;;;10.80;6.30;;;;;;;13.42;100.00;97831.34;4953048;28;20295;-84
2023/04/28 09:30:56;;;;;;;7.17;6.13;;;;;;;13.46;100.00;97836.25;4952343;28;20217;-83
2023/04/28 09:33:22;;;;;;;10.47;8.03;;;;;;;13.43;100.00;97833.03;4953073;28;20224;-82
2023/04/28 09:35:49;;;;;;;8.90;7.67;;;;;;;13.37;100.00;97837.06;4952861;28;20236;-78
2023/04/28 09:38:16;;;;;;;7.57;6.77;;;;;;;13.29;100.00;97830.72;4951989;28;20213;-84
2023/04/28 09:40:52;;;;;;;9.57;7.40;;;;;;;13.38;100.00;97835.25;4949336;28;20231;-84
2023/04/28 09:43:27;;;;;;;7.43;6.67;;;;;;;13.53;100.00;97825.97;4952610;28;20247;-85
2023/04/28 09:45:54;;;;;;;7.80;6.60;;;;;;;13.68;100.00;97829.97;4951408;28;20204;-84
2023/04/28 09:48:28;;;;;;;8.60;7.70;;;;;;;13.78;100.00;97825.53;4952901;28;20222;-86
2023/04/28 09:50:55;;;;;;;9.07;7.73;;;;;;;13.76;100.00;97828.31;4952003;28;20222;-82
2023/04/28 09:53:23;;;;;;;8.03;6.80;;;;;;;13.75;100.00;97826.63;4952699;28;20241;-75
2023/04/28 09:55:52;;;;;;;8.90;7.27;;;;;;;13.79;100.00;97817.44;4952243;28;20705;-76
2023/04/28 09:58:20;;;;;;;8.30;7.20;;;;;;;13.94;100.00;97821.41;4952392;28;20231;-76
2023/04/28 10:00:51;;;;;;;8.07;7.23;;;;;;;14.16;100.00;97820.34;4951525;28;20727;-76
2023/04/28 10:03:18;;;;;;;8.37;7.57;;;;;;;14.34;100.00;97819.63;4952347;28;20241;-77
2023/04/28 10:05:45;;;;;;;8.00;7.20;;;;;;;14.48;100.00;97816.56;4952633;28;20209;-77
2023/04/28 10:08:13;;;;;;;9.50;7.50;;;;;;;14.71;100.00;97825.13;4952487;28;20213;-77
2023/04/28 10:10:41;;;;;;;8.67;7.70;;;;;;;14.94;100.00;97818.53;4951733;28;20628;-77
2023/04/28 10:13:09;;;;;;;7.73;6.93;;;;;;;15.17;100.00;97810.16;4952304;28;20578;-77
2023/04/28 10:15:37;;;;;;;8.33;6.20;;;;;;;15.20;100.00;97809.00;4951896;28;20217;-77
2023/04/28 10:18:05;;;;;;;7.67;6.87;;;;;;;15.17;100.00;97809.28;4951567;28;20221;-77
2023/04/28 10:20:32;;;;;;;8.13;7.33;;;;;;;15.20;100.00;97814.31;4951595;28;20237;-79
2023/04/28 10:23:08;;;;;;;7.40;6.70;;;;;;;15.19;100.00;97816.16;4952823;28;20320;-76
2023/04/28 10:25:37;;;;;;;9.47;7.90;;;;;;;15.24;100.00;97815.72;4953963;28;20678;-76
2023/04/28 10:28:07;;;;;;;8.03;7.20;;;;;;;15.28;100.00;97819.78;4951930;28;20219;-77
2023/04/28 10:30:36;;;;;;;9.80;7.90;;;;;;;15.63;100.00;97812.03;4951519;28;20209;-75
2023/04/28 10:33:25;;;;;;;9.37;8.47;;;;;;;16.16;100.00;97812.06;4952028;28;20239;-76
2023/04/28 10:35:52;;;;;;;10.23;7.90;;;;;;;16.60;100.00;97805.13;4951765;29;20218;-76
2023/04/28 10:38:20;;;;;;;7.93;6.60;;;;;;;16.86;100.00;97804.22;4951830;28;20250;-84
2023/04/28 10:40:48;;;;;;;8.07;6.83;;;;;;;16.84;100.00;97808.88;4950986;28;20235;-78
2023/04/28 10:43:32;;;;;;;6.97;6.10;;;;;;;16.76;100.00;97814.13;4951779;28;20726;-78
2023/04/28 10:46:05;;;;;;;6.73;6.13;;;;;;;16.62;100.00;97816.47;4951886;28;20229;-79
2023/04/28 10:48:58;;;;;;;6.33;5.73;;;;;;;16.48;100.00;97820.50;4951804;28;20315;-79
2023/04/28 10:51:32;;;;;;;7.40;6.50;;;;;;;16.40;100.00;97824.91;4946594;28;20227;-78
2023/04/28 10:54:14;;;;;;;7.63;6.70;;;;;;;16.25;100.00;97829.88;4951681;28;20262;-78
2023/04/28 10:57:02;;;;;;;7.67;6.53;;;;;;;16.08;100.00;97828.97;4951704;28;20735;-78
2023/04/28 10:59:29;;;;;;;8.57;7.13;;;;;;;16.02;100.00;97826.91;4950579;28;20235;-78
2023/04/28 11:02:40;;;;;;;4.60;3.23;;;;;;;16.11;100.00;97818.84;4951332;28;20966;-78
2023/04/28 11:05:15;;;;;;;2.07;1.57;;;;;;;16.08;100.00;97827.13;4961127;28;20211;-78
2023/04/28 11:08:01;;;;;;;2.30;1.20;;;;;;;16.07;100.00;97828.13;4951405;28;20222;-78
2023/04/28 11:11:08;;;;;;;1.20;1.10;;;;;;;16.15;100.00;97821.06;4950546;28;20239;-78
2023/04/28 11:13:34;;;;;;;3.20;1.10;;;;;;;16.16;100.00;97812.06;4950889;28;20246;-78
2023/04/28 11:16:05;;;;;;;1.77;0.97;;;;;;;16.23;100.00;97815.84;4951117;28;20215;-78
2023/04/28 11:18:48;;;;;;;0.87;0.87;;;;;;;16.27;100.00;97816.41;4951786;28;20211;-77
2023/04/28 11:21:15;;;;;;;0.90;0.90;;;;;;;16.31;100.00;97810.59;4950591;28;20285;-77
2023/04/28 11:23:42;;;;;;;1.10;1.00;;;;;;;16.31;100.00;97821.28;4951061;28;20232;-77
2023/04/28 11:26:10;;;;;;;1.67;0.90;;;;;;;16.31;100.00;97821.28;4951137;28;20219;-78
2023/04/28 11:28:46;;;;;;;2.13;1.10;;;;;;;16.35;100.00;97817.31;4950828;28;20214;-77
2023/04/28 11:31:17;;;;;;;1.03;0.93;;;;;;;16.40;100.00;97815.06;4950283;28;20243;-77